WetterOnline ( https://www.wetteronline.de )

Wetter aktuell Feldberger Seenlandschaft

Aktuelles Wetter: Feldberg (115m)

6-stündlich | Neueste Meldungen
Ortszeit Temperatur Wetter
Sa, 24.08. 14:00 27.0° C fast wolkenlos
Sa, 24.08. 8:00 18.0° C fast wolkenlos
Sa, 24.08. 2:00 13.5° C fast wolkenlos
Fr, 23.08. 20:00 21.2° C wolkenlos
Fr, 23.08. 14:00 26.5° C wolkenlos
Fr, 23.08. 8:00 16.7° C leicht bewölkt
Fr, 23.08. 2:00 15.1° C fast wolkenlos
Do, 22.08. 20:00 21.8° C fast wolkenlos
Ortszeit Temperatur Wetter
Sa, 24.08. 14:30 27.1° C wolkenlos
Sa, 24.08. 14:20 27.1° C wolkenlos
Sa, 24.08. 14:10 27.3° C fast wolkenlos
Sa, 24.08. 14:00 27.0° C fast wolkenlos
Sa, 24.08. 13:50 27.0° C fast wolkenlos
Sa, 24.08. 13:40 27.3° C fast wolkenlos
Sa, 24.08. 13:30 27.5° C leicht bewölkt
Sa, 24.08. 13:00 26.2° C fast wolkenlos
Sa, 24.08. 12:30 25.8° C fast wolkenlos
Sa, 24.08. 12:00 25.1° C fast wolkenlos
Sa, 24.08. 11:30 25.4° C fast wolkenlos
Ortszeit Relative Feuchte Sichtweite
Sa, 24.08. 14:00 36% 29 km
Sa, 24.08. 8:00 76% 18 km
Sa, 24.08. 2:00 88% 19 km
Fr, 23.08. 20:00 55% 26 km
Fr, 23.08. 14:00 33% 28 km
Fr, 23.08. 8:00 75% 20 km
Fr, 23.08. 2:00 74% 26 km
Do, 22.08. 20:00 43% 27 km
Ortszeit Relative Feuchte Sichtweite
Sa, 24.08. 14:30 33% 24 km
Sa, 24.08. 14:20 33% -
Sa, 24.08. 14:10 33% -
Sa, 24.08. 14:00 36% 29 km
Sa, 24.08. 13:50 36% -
Sa, 24.08. 13:40 37% -
Sa, 24.08. 13:30 37% 29 km
Sa, 24.08. 13:00 39% 30 km
Sa, 24.08. 12:30 40% 21 km
Sa, 24.08. 12:00 43% 25 km
Sa, 24.08. 11:30 42% 21 km
Ortszeit Niederschlagsmenge Niederschlagsart
Sa, 24.08. 14:00 0.0 l/m2 in 6 Std. -
Sa, 24.08. 8:00 0.0 l/m2 in 12 Std. -
Sa, 24.08. 2:00 0.0 l/m2 in 6 Std. -
Fr, 23.08. 20:00 0.0 l/m2 in 12 Std. -
Fr, 23.08. 14:00 0.0 l/m2 in 6 Std. -
Fr, 23.08. 8:00 0.0 l/m2 in 12 Std. -
Fr, 23.08. 2:00 0.0 l/m2 in 6 Std. -
Do, 22.08. 20:00 0.0 l/m2 in 12 Std. -
Ortszeit Niederschlagsmenge Niederschlagsart
Sa, 24.08. 14:30 0.0 l/m2 in 1 Std. -
Sa, 24.08. 14:20 keine Meldung -
Sa, 24.08. 14:10 keine Meldung -
Sa, 24.08. 14:00 0.0 l/m2 in 1 Std. -
Sa, 24.08. 13:50 keine Meldung -
Sa, 24.08. 13:40 keine Meldung -
Sa, 24.08. 13:30 0.0 l/m2 in 1 Std. -
Sa, 24.08. 13:00 0.0 l/m2 in 1 Std. -
Sa, 24.08. 12:30 0.0 l/m2 in 1 Std. -
Sa, 24.08. 12:00 0.0 l/m2 in 1 Std. -
Sa, 24.08. 11:30 0.0 l/m2 in 1 Std. -
Ortszeit Stärke Spitze Richtung
km/h Bft. km/h Grad Sektor
Sa, 24.08. 14:00 13 3 28 130° SO
Sa, 24.08. 8:00 4 1 7 360° N
Sa, 24.08. 2:00 6 1 19 50° NO
Fr, 23.08. 20:00 4 1 22 340° N
Fr, 23.08. 14:00 7 2 25 150° SO
Fr, 23.08. 8:00 7 2 11 170° S
Fr, 23.08. 2:00 4 1 7 160° S
Do, 22.08. 20:00 4 1 32 170° S
Ortszeit Stärke Spitze Richtung
km/h Bft. km/h Grad Sektor
Sa, 24.08. 14:30 13 3 26 120° SO
Sa, 24.08. 14:20 13 3 - 120° SO
Sa, 24.08. 14:10 14 3 - 110° O
Sa, 24.08. 14:00 13 3 28 130° SO
Sa, 24.08. 13:50 13 3 - 130° SO
Sa, 24.08. 13:40 13 3 - 100° O
Sa, 24.08. 13:30 15 3 28 120° SO
Sa, 24.08. 13:00 17 3 28 110° O
Sa, 24.08. 12:30 14 3 25 110° O
Sa, 24.08. 12:00 18 3 29 120° SO
Sa, 24.08. 11:30 17 3 28 100° O
Ortszeit Untergrenze Bedeckung Gattung
total tief tief mittel hoch
Sa, 24.08. 14:00 8700 m 1/8 0/8 - - -
Sa, 24.08. 8:00 7500 m 2/8 0/8 - - -
Sa, 24.08. 2:00 8400 m 1/8 0/8 - - -
Fr, 23.08. 20:00 - 0/8 0/8 - - -
Fr, 23.08. 14:00 - 0/8 0/8 - - -
Fr, 23.08. 8:00 8400 m 3/8 0/8 - - -
Fr, 23.08. 2:00 8400 m 2/8 0/8 - - -
Do, 22.08. 20:00 8100 m 1/8 0/8 - - -
Ortszeit Bedeckungsgrad in Achtel und Wolkenuntergrenze
Sa, 24.08. 14:30 keine Wolken
Sa, 24.08. 14:20 keine Wolken
Sa, 24.08. 14:10 1(10500m)
Sa, 24.08. 14:00 1(8700m)
Sa, 24.08. 13:50 1(8700m)
Sa, 24.08. 13:40 1(7500m)
Sa, 24.08. 13:30 2(7500m) 4(8400m)
Sa, 24.08. 13:00 1(8100m) 4(9000m)
Sa, 24.08. 12:30 2(8400m)
Sa, 24.08. 12:00 2(8100m) 2(9000m)
Sa, 24.08. 11:30 1(8100m)
Ortszeit Luftdruck NN (hPa) Tendenz (hPa in 3 Std.)
Sa, 24.08. 14:00 1024 - 1,4
Sa, 24.08. 8:00 1026 + 0,1
Sa, 24.08. 2:00 1026 0,0
Fr, 23.08. 20:00 1025 - 0,5
Fr, 23.08. 14:00 1026 - 1,0
Fr, 23.08. 8:00 1027 + 0,5
Fr, 23.08. 2:00 1027 + 0,1
Do, 22.08. 20:00 1025 - 0,7
Ortszeit Luftdruck NN (hPa) Tendenz (hPa in 3 Std.)
Sa, 24.08. 14:30 1024 - 1,3
Sa, 24.08. 14:20 1024 keine Meldung
Sa, 24.08. 14:10 1024 keine Meldung
Sa, 24.08. 14:00 1024 - 1,4
Sa, 24.08. 13:50 1024 keine Meldung
Sa, 24.08. 13:40 1024 keine Meldung
Sa, 24.08. 13:30 1024 - 1,3
Sa, 24.08. 13:00 1025 - 0,9
Sa, 24.08. 12:30 1025 - 0,6
Sa, 24.08. 12:00 1026 - 0,1
Sa, 24.08. 11:30 1026 0,0
Ortszeit Schneehöhe (cm)
Sa, 24.08. 14:00 -
Sa, 24.08. 8:00 -
Sa, 24.08. 2:00 -
Fr, 23.08. 20:00 -
Fr, 23.08. 14:00 -
Fr, 23.08. 8:00 -
Fr, 23.08. 2:00 -
Do, 22.08. 20:00 -
Ortszeit Schneehöhe (cm)
Sa, 24.08. 14:30 -
Sa, 24.08. 14:20 -
Sa, 24.08. 14:10 -
Sa, 24.08. 14:00 -
Sa, 24.08. 13:50 -
Sa, 24.08. 13:40 -
Sa, 24.08. 13:30 -
Sa, 24.08. 13:00 -
Sa, 24.08. 12:30 -
Sa, 24.08. 12:00 -
Sa, 24.08. 11:30 -
Link zu dieser Seite / Seite empfehlen

Das Wetter in ...